Terminal Aerodrome Forecast
Issued by NWS

Home | Current Version | Previous Version | Text Only | Print | Product List | Glossary On
Versions: 1 2 3 4 5 6 7 8 9 10 11 12 13 14 15
414
FTUS46 KMFR 200233 AAA
TAFRBG
TAF AMD
KRBG 200233Z 2003/2024 20008KT P6SM -RA SCT010 SCT025 OVC040
      WS020/23030KT
     FM200400 VRB03KT P6SM -SHRA SCT020 OVC035
     FM201000 17004KT 4SM -SHRA BR OVC015
     FM201800 18007KT P6SM -SHRA SCT015 OVC025=

USA.gov is the U.S. government's official web portal to all federal, state and local government web resources and services.